sensor_id;sensor_type;location;lat;lon;timestamp;pressure;altitude;pressure_sealevel;temperature;humidity
47873;BME280;73966;47.438;18.912;2024-01-11T00:01:19;101307.22;;;-2.17;57.41
47873;BME280;73966;47.438;18.912;2024-01-11T00:03:49;101310.44;;;-2.54;58.70
47873;BME280;73966;47.438;18.912;2024-01-11T00:06:18;101311.31;;;-2.55;58.58
47873;BME280;73966;47.438;18.912;2024-01-11T00:08:48;101310.59;;;-2.31;58.02
47873;BME280;73966;47.438;18.912;2024-01-11T00:11:18;101315.81;;;-2.26;57.80
47873;BME280;73966;47.438;18.912;2024-01-11T00:13:49;101317.97;;;-2.87;59.01
47873;BME280;73966;47.438;18.912;2024-01-11T00:16:19;101317.03;;;-2.95;59.67
47873;BME280;73966;47.438;18.912;2024-01-11T00:18:48;101310.19;;;-2.87;59.44
47873;BME280;73966;47.438;18.912;2024-01-11T00:21:19;101312.81;;;-2.83;59.26
47873;BME280;73966;47.438;18.912;2024-01-11T00:23:49;101314.19;;;-3.23;60.18
47873;BME280;73966;47.438;18.912;2024-01-11T00:26:18;101305.75;;;-3.04;59.67
47873;BME280;73966;47.438;18.912;2024-01-11T00:28:49;101299.44;;;-3.32;60.44
47873;BME280;73966;47.438;18.912;2024-01-11T00:31:19;101299.78;;;-2.90;59.49
47873;BME280;73966;47.438;18.912;2024-01-11T00:33:48;101295.56;;;-2.81;59.16
47873;BME280;73966;47.438;18.912;2024-01-11T00:36:18;101302.50;;;-2.75;58.99
47873;BME280;73966;47.438;18.912;2024-01-11T00:38:47;101296.47;;;-2.77;58.96
47873;BME280;73966;47.438;18.912;2024-01-11T00:41:16;101297.22;;;-2.89;59.06
47873;BME280;73966;47.438;18.912;2024-01-11T00:43:46;101289.50;;;-2.80;58.93
47873;BME280;73966;47.438;18.912;2024-01-11T00:46:19;101291.31;;;-2.73;58.72
47873;BME280;73966;47.438;18.912;2024-01-11T00:48:51;101276.69;;;-2.58;58.32
47873;BME280;73966;47.438;18.912;2024-01-11T00:51:26;101285.28;;;-2.67;58.26
47873;BME280;73966;47.438;18.912;2024-01-11T00:53:56;101282.38;;;-3.08;59.50
47873;BME280;73966;47.438;18.912;2024-01-11T00:56:25;101276.34;;;-3.01;59.47
47873;BME280;73966;47.438;18.912;2024-01-11T00:58:54;101266.66;;;-3.28;60.01
47873;BME280;73966;47.438;18.912;2024-01-11T01:01:25;101277.28;;;-2.94;59.22
47873;BME280;73966;47.438;18.912;2024-01-11T01:04:04;101270.13;;;-3.25;59.84
47873;BME280;73966;47.438;18.912;2024-01-11T01:06:34;101276.06;;;-3.35;59.97
47873;BME280;73966;47.438;18.912;2024-01-11T01:09:03;101269.16;;;-3.36;60.28
47873;BME280;73966;47.438;18.912;2024-01-11T01:11:32;101268.16;;;-3.50;60.81
47873;BME280;73966;47.438;18.912;2024-01-11T01:14:01;101253.66;;;-3.31;60.61
47873;BME280;73966;47.438;18.912;2024-01-11T01:16:35;101253.81;;;-3.10;59.78
47873;BME280;73966;47.438;18.912;2024-01-11T01:19:04;101255.44;;;-3.21;60.19
47873;BME280;73966;47.438;18.912;2024-01-11T01:21:33;101247.75;;;-3.15;60.19
47873;BME280;73966;47.438;18.912;2024-01-11T01:24:03;101256.87;;;-3.54;61.50
47873;BME280;73966;47.438;18.912;2024-01-11T01:26:32;101250.91;;;-3.48;61.55
47873;BME280;73966;47.438;18.912;2024-01-11T01:29:01;101248.53;;;-3.24;60.79
47873;BME280;73966;47.438;18.912;2024-01-11T01:31:30;101241.69;;;-3.14;60.11
47873;BME280;73966;47.438;18.912;2024-01-11T01:34:06;101238.44;;;-2.87;59.04
47873;BME280;73966;47.438;18.912;2024-01-11T01:36:37;101234.50;;;-3.46;60.95
47873;BME280;73966;47.438;18.912;2024-01-11T01:39:07;101232.81;;;-3.42;60.91
47873;BME280;73966;47.438;18.912;2024-01-11T01:41:37;101225.03;;;-3.43;61.23
47873;BME280;73966;47.438;18.912;2024-01-11T01:44:06;101222.63;;;-3.22;60.42
47873;BME280;73966;47.438;18.912;2024-01-11T01:46:36;101225.00;;;-3.48;60.90
47873;BME280;73966;47.438;18.912;2024-01-11T01:49:07;101220.19;;;-2.98;59.84
47873;BME280;73966;47.438;18.912;2024-01-11T01:51:36;101223.66;;;-2.97;59.69
47873;BME280;73966;47.438;18.912;2024-01-11T01:54:06;101211.53;;;-3.03;59.69
47873;BME280;73966;47.438;18.912;2024-01-11T01:56:35;101208.16;;;-2.91;59.63
47873;BME280;73966;47.438;18.912;2024-01-11T01:59:05;101207.19;;;-3.05;60.10
47873;BME280;73966;47.438;18.912;2024-01-11T02:01:34;101206.25;;;-3.15;60.45
47873;BME280;73966;47.438;18.912;2024-01-11T02:04:05;101202.16;;;-2.84;59.27
47873;BME280;73966;47.438;18.912;2024-01-11T02:06:36;101203.03;;;-2.85;59.16
47873;BME280;73966;47.438;18.912;2024-01-11T02:09:06;101210.84;;;-2.76;59.06
47873;BME280;73966;47.438;18.912;2024-01-11T02:11:37;101200.59;;;-2.57;58.31
47873;BME280;73966;47.438;18.912;2024-01-11T02:14:07;101198.56;;;-3.04;59.67
47873;BME280;73966;47.438;18.912;2024-01-11T02:16:36;101201.25;;;-2.86;58.88
47873;BME280;73966;47.438;18.912;2024-01-11T02:19:12;101192.25;;;-3.38;60.30
47873;BME280;73966;47.438;18.912;2024-01-11T02:21:44;101187.91;;;-3.42;60.68
47873;BME280;73966;47.438;18.912;2024-01-11T02:24:16;101182.87;;;-3.21;60.13
47873;BME280;73966;47.438;18.912;2024-01-11T02:26:58;101177.62;;;-3.30;60.32
47873;BME280;73966;47.438;18.912;2024-01-11T02:29:29;101174.84;;;-3.55;60.98
47873;BME280;73966;47.438;18.912;2024-01-11T02:32:05;101170.72;;;-3.30;60.30
47873;BME280;73966;47.438;18.912;2024-01-11T02:34:36;101171.78;;;-3.03;59.56
47873;BME280;73966;47.438;18.912;2024-01-11T02:37:06;101166.63;;;-3.00;59.24
47873;BME280;73966;47.438;18.912;2024-01-11T02:39:37;101169.94;;;-3.18;59.69
47873;BME280;73966;47.438;18.912;2024-01-11T02:42:07;101165.81;;;-2.88;58.67
47873;BME280;73966;47.438;18.912;2024-01-11T02:44:43;101168.41;;;-2.87;58.45
47873;BME280;73966;47.438;18.912;2024-01-11T02:47:12;101161.50;;;-2.82;58.21
47873;BME280;73966;47.438;18.912;2024-01-11T02:49:46;101158.75;;;-3.09;58.71
47873;BME280;73966;47.438;18.912;2024-01-11T02:52:16;101156.31;;;-2.86;58.26
47873;BME280;73966;47.438;18.912;2024-01-11T02:54:46;101156.91;;;-3.32;59.48
47873;BME280;73966;47.438;18.912;2024-01-11T02:57:20;101150.44;;;-3.80;61.06
47873;BME280;73966;47.438;18.912;2024-01-11T02:59:49;101148.13;;;-3.48;60.38
47873;BME280;73966;47.438;18.912;2024-01-11T03:02:19;101144.63;;;-3.54;60.89
47873;BME280;73966;47.438;18.912;2024-01-11T03:04:48;101152.69;;;-4.12;62.53
47873;BME280;73966;47.438;18.912;2024-01-11T03:07:22;101141.72;;;-3.91;62.65
47873;BME280;73966;47.438;18.912;2024-01-11T03:09:53;101141.16;;;-3.55;61.45
47873;BME280;73966;47.438;18.912;2024-01-11T03:12:22;101135.16;;;-3.49;61.01
47873;BME280;73966;47.438;18.912;2024-01-11T03:14:54;101133.25;;;-3.72;62.02
47873;BME280;73966;47.438;18.912;2024-01-11T03:17:23;101130.12;;;-3.28;60.82
47873;BME280;73966;47.438;18.912;2024-01-11T03:19:52;101130.09;;;-3.31;60.70
47873;BME280;73966;47.438;18.912;2024-01-11T03:22:22;101127.59;;;-3.17;60.46
47873;BME280;73966;47.438;18.912;2024-01-11T03:24:55;101121.56;;;-3.16;60.35
47873;BME280;73966;47.438;18.912;2024-01-11T03:27:24;101119.94;;;-2.99;59.75
47873;BME280;73966;47.438;18.912;2024-01-11T03:29:53;101113.97;;;-2.82;59.19
47873;BME280;73966;47.438;18.912;2024-01-11T03:32:22;101112.81;;;-3.33;60.41
47873;BME280;73966;47.438;18.912;2024-01-11T03:34:52;101106.00;;;-3.17;60.16
47873;BME280;73966;47.438;18.912;2024-01-11T03:37:23;101113.38;;;-3.73;61.76
47873;BME280;73966;47.438;18.912;2024-01-11T03:39:54;101110.97;;;-3.51;61.47
47873;BME280;73966;47.438;18.912;2024-01-11T03:42:23;101101.66;;;-3.17;60.22
47873;BME280;73966;47.438;18.912;2024-01-11T03:44:52;101103.41;;;-3.19;60.25
47873;BME280;73966;47.438;18.912;2024-01-11T03:47:24;101093.06;;;-3.13;60.10
47873;BME280;73966;47.438;18.912;2024-01-11T03:49:54;101083.59;;;-3.06;59.46
47873;BME280;73966;47.438;18.912;2024-01-11T03:52:23;101079.34;;;-2.97;59.08
47873;BME280;73966;47.438;18.912;2024-01-11T03:54:52;101086.22;;;-3.05;59.17
47873;BME280;73966;47.438;18.912;2024-01-11T03:57:24;101073.19;;;-3.09;59.36
47873;BME280;73966;47.438;18.912;2024-01-11T03:59:53;101080.13;;;-3.11;59.82
47873;BME280;73966;47.438;18.912;2024-01-11T04:02:23;101070.50;;;-3.32;60.17
47873;BME280;73966;47.438;18.912;2024-01-11T04:04:53;101067.66;;;-3.66;61.54
47873;BME280;73966;47.438;18.912;2024-01-11T04:07:23;101064.47;;;-3.28;60.36
47873;BME280;73966;47.438;18.912;2024-01-11T04:09:53;101070.41;;;-3.48;60.77
47873;BME280;73966;47.438;18.912;2024-01-11T04:12:22;101067.03;;;-3.34;60.70
47873;BME280;73966;47.438;18.912;2024-01-11T04:14:52;101069.62;;;-3.31;60.20
47873;BME280;73966;47.438;18.912;2024-01-11T04:17:25;101070.50;;;-3.32;60.10
47873;BME280;73966;47.438;18.912;2024-01-11T04:19:55;101074.66;;;-3.53;61.01
47873;BME280;73966;47.438;18.912;2024-01-11T04:22:24;101068.72;;;-3.38;60.47
47873;BME280;73966;47.438;18.912;2024-01-11T04:24:53;101068.63;;;-3.53;61.16
47873;BME280;73966;47.438;18.912;2024-01-11T04:27:24;101075.97;;;-4.05;62.50
47873;BME280;73966;47.438;18.912;2024-01-11T04:29:55;101070.75;;;-4.11;63.30
47873;BME280;73966;47.438;18.912;2024-01-11T04:32:24;101074.34;;;-3.94;62.77
47873;BME280;73966;47.438;18.912;2024-01-11T04:34:53;101074.41;;;-3.88;62.75
47873;BME280;73966;47.438;18.912;2024-01-11T04:37:25;101077.84;;;-3.92;63.18
47873;BME280;73966;47.438;18.912;2024-01-11T04:39:54;101083.84;;;-3.93;63.12
47873;BME280;73966;47.438;18.912;2024-01-11T04:42:23;101079.88;;;-3.51;61.60
47873;BME280;73966;47.438;18.912;2024-01-11T04:44:52;101088.47;;;-3.55;61.82
47873;BME280;73966;47.438;18.912;2024-01-11T04:47:27;101090.16;;;-3.63;62.20
47873;BME280;73966;47.438;18.912;2024-01-11T04:49:59;101081.31;;;-3.85;62.78
47873;BME280;73966;47.438;18.912;2024-01-11T04:52:29;101078.91;;;-3.62;62.13
47873;BME280;73966;47.438;18.912;2024-01-11T04:54:58;101081.44;;;-3.70;61.92
47873;BME280;73966;47.438;18.912;2024-01-11T04:57:27;101079.97;;;-3.36;61.20
47873;BME280;73966;47.438;18.912;2024-01-11T05:00:00;101068.69;;;-3.44;61.13
47873;BME280;73966;47.438;18.912;2024-01-11T05:02:32;101076.38;;;-3.53;61.31
47873;BME280;73966;47.438;18.912;2024-01-11T05:05:01;101068.78;;;-3.27;60.70
47873;BME280;73966;47.438;18.912;2024-01-11T05:07:31;101077.47;;;-3.19;60.58
47873;BME280;73966;47.438;18.912;2024-01-11T05:10:03;101074.84;;;-3.27;60.70
47873;BME280;73966;47.438;18.912;2024-01-11T05:12:32;101068.66;;;-3.52;61.67
47873;BME280;73966;47.438;18.912;2024-01-11T05:15:05;101068.75;;;-3.33;61.56
47873;BME280;73966;47.438;18.912;2024-01-11T05:17:36;101067.84;;;-3.38;61.46
47873;BME280;73966;47.438;18.912;2024-01-11T05:20:07;101058.72;;;-2.61;59.20
47873;BME280;73966;47.438;18.912;2024-01-11T05:22:37;101065.53;;;-2.88;59.79
47873;BME280;73966;47.438;18.912;2024-01-11T05:25:06;101063.00;;;-2.73;59.31
47873;BME280;73966;47.438;18.912;2024-01-11T05:27:35;101070.69;;;-2.89;59.48
47873;BME280;73966;47.438;18.912;2024-01-11T05:30:06;101067.13;;;-3.14;59.80
47873;BME280;73966;47.438;18.912;2024-01-11T05:32:37;101061.16;;;-2.93;59.41
47873;BME280;73966;47.438;18.912;2024-01-11T05:35:07;101063.69;;;-3.15;60.19
47873;BME280;73966;47.438;18.912;2024-01-11T05:37:38;101062.84;;;-3.11;60.27
47873;BME280;73966;47.438;18.912;2024-01-11T05:40:08;101068.75;;;-3.33;61.15
47873;BME280;73966;47.438;18.912;2024-01-11T05:42:38;101071.44;;;-3.13;60.57
47873;BME280;73966;47.438;18.912;2024-01-11T05:45:07;101068.06;;;-3.03;60.18
47873;BME280;73966;47.438;18.912;2024-01-11T05:47:38;101073.00;;;-3.46;61.06
47873;BME280;73966;47.438;18.912;2024-01-11T05:50:08;101073.19;;;-3.15;60.31
47873;BME280;73966;47.438;18.912;2024-01-11T05:52:38;101066.28;;;-3.16;60.65
47873;BME280;73966;47.438;18.912;2024-01-11T05:55:07;101062.88;;;-3.03;60.12
47873;BME280;73966;47.438;18.912;2024-01-11T05:57:36;101055.03;;;-3.09;60.37
47873;BME280;73966;47.438;18.912;2024-01-11T06:00:06;101068.13;;;-2.86;59.96
47873;BME280;73966;47.438;18.912;2024-01-11T06:02:37;101070.00;;;-2.53;59.11
47873;BME280;73966;47.438;18.912;2024-01-11T06:05:08;101069.97;;;-2.52;58.90
47873;BME280;73966;47.438;18.912;2024-01-11T06:07:37;101071.72;;;-2.46;58.40
47873;BME280;73966;47.438;18.912;2024-01-11T06:10:07;101078.63;;;-2.54;58.34
47873;BME280;73966;47.438;18.912;2024-01-11T06:12:37;101069.94;;;-2.67;58.74
47873;BME280;73966;47.438;18.912;2024-01-11T06:15:06;101071.69;;;-2.54;58.45
47873;BME280;73966;47.438;18.912;2024-01-11T06:17:35;101063.94;;;-2.49;58.27
47873;BME280;73966;47.438;18.912;2024-01-11T06:20:07;101071.63;;;-2.74;58.99
47873;BME280;73966;47.438;18.912;2024-01-11T06:22:37;101070.78;;;-2.69;59.01
47873;BME280;73966;47.438;18.912;2024-01-11T06:25:09;101063.91;;;-2.63;58.39
47873;BME280;73966;47.438;18.912;2024-01-11T06:27:38;101061.22;;;-2.81;59.13
47873;BME280;73966;47.438;18.912;2024-01-11T06:30:12;101051.75;;;-2.76;59.25
47873;BME280;73966;47.438;18.912;2024-01-11T06:32:41;101048.34;;;-2.60;58.85
47873;BME280;73966;47.438;18.912;2024-01-11T06:35:12;101054.41;;;-2.47;58.47
47873;BME280;73966;47.438;18.912;2024-01-11T06:37:41;101050.94;;;-2.51;58.95
47873;BME280;73966;47.438;18.912;2024-01-11T06:40:11;101050.03;;;-2.69;59.58
47873;BME280;73966;47.438;18.912;2024-01-11T06:42:40;101050.94;;;-2.55;59.24
47873;BME280;73966;47.438;18.912;2024-01-11T06:45:09;101055.28;;;-2.51;59.08
47873;BME280;73966;47.438;18.912;2024-01-11T06:47:38;101047.50;;;-2.51;59.38
47873;BME280;73966;47.438;18.912;2024-01-11T06:50:08;101044.91;;;-2.47;59.44
47873;BME280;73966;47.438;18.912;2024-01-11T06:52:39;101047.53;;;-2.45;59.49
47873;BME280;73966;47.438;18.912;2024-01-11T06:55:14;101044.91;;;-2.43;59.37
47873;BME280;73966;47.438;18.912;2024-01-11T06:57:46;101044.06;;;-2.36;59.49
47873;BME280;73966;47.438;18.912;2024-01-11T07:00:16;101045.69;;;-2.74;61.27
47873;BME280;73966;47.438;18.912;2024-01-11T07:02:45;101050.13;;;-2.22;60.50
47873;BME280;73966;47.438;18.912;2024-01-11T07:05:14;101044.94;;;-2.14;59.65
47873;BME280;73966;47.438;18.912;2024-01-11T07:07:45;101037.16;;;-1.71;58.71
47873;BME280;73966;47.438;18.912;2024-01-11T07:10:15;101044.06;;;-1.34;58.08
47873;BME280;73966;47.438;18.912;2024-01-11T07:12:44;101036.97;;;-0.93;56.54
47873;BME280;73966;47.438;18.912;2024-01-11T07:15:16;101032.53;;;-0.68;55.62
47873;BME280;73966;47.438;18.912;2024-01-11T07:17:45;101028.12;;;-0.60;55.52
47873;BME280;73966;47.438;18.912;2024-01-11T07:20:14;101043.03;;;-0.91;56.44
47873;BME280;73966;47.438;18.912;2024-01-11T07:22:46;101048.41;;;-1.50;58.22
47873;BME280;73966;47.438;18.912;2024-01-11T07:25:16;101031.06;;;-1.37;58.63
47873;BME280;73966;47.438;18.912;2024-01-11T07:27:46;101037.19;;;-1.70;59.82
47873;BME280;73966;47.438;18.912;2024-01-11T07:30:15;101038.84;;;-1.43;59.20
47873;BME280;73966;47.438;18.912;2024-01-11T07:32:45;101040.63;;;-1.71;60.57
47873;BME280;73966;47.438;18.912;2024-01-11T07:35:14;101030.25;;;-2.12;62.11
47873;BME280;73966;47.438;18.912;2024-01-11T07:37:47;101029.38;;;-2.07;62.38
47873;BME280;73966;47.438;18.912;2024-01-11T07:40:17;101038.03;;;-1.79;61.82
47873;BME280;73966;47.438;18.912;2024-01-11T07:42:48;101044.06;;;-1.46;60.91
47873;BME280;73966;47.438;18.912;2024-01-11T07:45:18;101037.16;;;-1.53;61.30
47873;BME280;73966;47.438;18.912;2024-01-11T07:47:47;101031.94;;;-1.56;61.39
47873;BME280;73966;47.438;18.912;2024-01-11T07:50:17;101029.19;;;-1.00;60.03
47873;BME280;73966;47.438;18.912;2024-01-11T07:52:47;101028.09;;;-0.53;58.59
47873;BME280;73966;47.438;18.912;2024-01-11T07:55:17;101022.03;;;-0.53;58.42
47873;BME280;73966;47.438;18.912;2024-01-11T07:57:51;101020.81;;;-0.03;57.75
47873;BME280;73966;47.438;18.912;2024-01-11T08:00:21;101011.56;;;0.58;55.63
47873;BME280;73966;47.438;18.912;2024-01-11T08:02:50;101004.62;;;1.31;54.00
47873;BME280;73966;47.438;18.912;2024-01-11T08:05:19;101011.72;;;1.80;51.99
47873;BME280;73966;47.438;18.912;2024-01-11T08:07:51;101003.19;;;2.70;50.52
47873;BME280;73966;47.438;18.912;2024-01-11T08:10:20;100998.59;;;3.24;48.26
47873;BME280;73966;47.438;18.912;2024-01-11T08:12:49;100997.53;;;4.07;46.35
47873;BME280;73966;47.438;18.912;2024-01-11T08:15:18;100990.34;;;5.11;44.12
47873;BME280;73966;47.438;18.912;2024-01-11T08:17:48;100980.53;;;6.02;41.75
47873;BME280;73966;47.438;18.912;2024-01-11T08:20:17;100960.59;;;6.70;39.81
47873;BME280;73966;47.438;18.912;2024-01-11T08:22:47;100966.97;;;7.11;39.13
47873;BME280;73966;47.438;18.912;2024-01-11T08:25:18;100958.06;;;7.37;37.81
47873;BME280;73966;47.438;18.912;2024-01-11T08:27:48;100955.37;;;8.85;46.62
47873;BME280;73966;47.438;18.912;2024-01-11T08:30:17;100952.69;;;9.79;35.10
47873;BME280;73966;47.438;18.912;2024-01-11T08:32:46;100946.72;;;10.10;33.08
47873;BME280;73966;47.438;18.912;2024-01-11T08:35:19;100931.50;;;9.97;32.84
47873;BME280;73966;47.438;18.912;2024-01-11T08:37:49;100932.75;;;10.24;32.38
47873;BME280;73966;47.438;18.912;2024-01-11T08:40:20;100950.75;;;10.00;32.67
47873;BME280;73966;47.438;18.912;2024-01-11T08:42:48;100943.56;;;9.85;33.02
47873;BME280;73966;47.438;18.912;2024-01-11T08:45:18;100939.97;;;9.69;32.73
47873;BME280;73966;47.438;18.912;2024-01-11T08:47:47;100941.25;;;9.96;32.62
47873;BME280;73966;47.438;18.912;2024-01-11T08:50:17;100935.41;;;10.24;32.45
47873;BME280;73966;47.438;18.912;2024-01-11T08:52:51;100929.25;;;10.58;31.44
47873;BME280;73966;47.438;18.912;2024-01-11T08:55:25;100942.09;;;9.79;32.82
47873;BME280;73966;47.438;18.912;2024-01-11T08:57:55;100940.56;;;10.10;32.04
47873;BME280;73966;47.438;18.912;2024-01-11T09:00:24;100937.28;;;10.05;32.65
47873;BME280;73966;47.438;18.912;2024-01-11T09:02:53;100934.00;;;10.17;32.44
47873;BME280;73966;47.438;18.912;2024-01-11T09:05:23;100923.91;;;10.43;32.07
47873;BME280;73966;47.438;18.912;2024-01-11T09:07:51;100931.84;;;9.54;32.89
47873;BME280;73966;47.438;18.912;2024-01-11T09:10:21;100936.94;;;9.76;32.93
47873;BME280;73966;47.438;18.912;2024-01-11T09:12:51;100939.47;;;9.60;33.36
47873;BME280;73966;47.438;18.912;2024-01-11T09:15:21;100939.34;;;9.64;33.38
47873;BME280;73966;47.438;18.912;2024-01-11T09:17:50;100928.03;;;9.24;34.14
47873;BME280;73966;47.438;18.912;2024-01-11T09:20:20;100935.97;;;9.24;34.80
47873;BME280;73966;47.438;18.912;2024-01-11T09:22:50;100930.94;;;9.18;34.58
47873;BME280;73966;47.438;18.912;2024-01-11T09:25:19;100923.91;;;8.60;35.26
47873;BME280;73966;47.438;18.912;2024-01-11T09:27:48;100920.75;;;8.52;35.65
47873;BME280;73966;47.438;18.912;2024-01-11T09:30:21;100921.66;;;8.10;36.88
47873;BME280;73966;47.438;18.912;2024-01-11T09:32:50;100925.31;;;8.48;35.56
47873;BME280;73966;47.438;18.912;2024-01-11T09:35:21;100923.00;;;8.61;35.09
47873;BME280;73966;47.438;18.912;2024-01-11T09:37:50;100917.59;;;9.02;34.32
47873;BME280;73966;47.438;18.912;2024-01-11T09:40:20;100907.94;;;9.01;33.95
47873;BME280;73966;47.438;18.912;2024-01-11T09:42:50;100895.91;;;9.50;33.36
47873;BME280;73966;47.438;18.912;2024-01-11T09:45:21;100893.50;;;9.63;32.41
47873;BME280;73966;47.438;18.912;2024-01-11T09:47:51;100880.75;;;9.71;32.74
47873;BME280;73966;47.438;18.912;2024-01-11T09:50:25;100867.25;;;10.28;32.11
47873;BME280;73966;47.438;18.912;2024-01-11T09:52:55;100855.84;;;9.75;32.16
47873;BME280;73966;47.438;18.912;2024-01-11T09:55:24;100854.66;;;9.64;32.51
47873;BME280;73966;47.438;18.912;2024-01-11T09:57:56;100853.00;;;9.07;33.76
47873;BME280;73966;47.438;18.912;2024-01-11T10:00:30;100849.69;;;9.21;33.67
47873;BME280;73966;47.438;18.912;2024-01-11T10:03:00;100844.63;;;9.17;33.58
47873;BME280;73966;47.438;18.912;2024-01-11T10:05:33;100844.84;;;9.12;33.41
47873;BME280;73966;47.438;18.912;2024-01-11T10:08:03;100833.66;;;8.30;34.69
47873;BME280;73966;47.438;18.912;2024-01-11T10:10:33;100831.00;;;8.50;34.16
47873;BME280;73966;47.438;18.912;2024-01-11T10:13:03;100841.50;;;9.08;33.36
47873;BME280;73966;47.438;18.912;2024-01-11T10:15:33;100832.41;;;9.14;33.29
47873;BME280;73966;47.438;18.912;2024-01-11T10:18:03;100833.09;;;9.18;33.84
47873;BME280;73966;47.438;18.912;2024-01-11T10:20:34;100826.97;;;9.71;33.30
47873;BME280;73966;47.438;18.912;2024-01-11T10:23:04;100821.66;;;9.71;33.38
47873;BME280;73966;47.438;18.912;2024-01-11T10:25:35;100807.88;;;9.99;33.21
47873;BME280;73966;47.438;18.912;2024-01-11T10:28:03;100809.72;;;9.62;33.28
47873;BME280;73966;47.438;18.912;2024-01-11T10:30:38;100790.31;;;9.63;33.13
47873;BME280;73966;47.438;18.912;2024-01-11T10:33:09;100794.72;;;9.80;33.23
47873;BME280;73966;47.438;18.912;2024-01-11T10:35:39;100793.63;;;9.84;32.82
47873;BME280;73966;47.438;18.912;2024-01-11T10:38:09;100786.94;;;9.42;33.20
47873;BME280;73966;47.438;18.912;2024-01-11T10:40:40;100796.69;;;9.59;33.18
47873;BME280;73966;47.438;18.912;2024-01-11T10:43:10;100798.38;;;9.60;33.81
47873;BME280;73966;47.438;18.912;2024-01-11T10:45:43;100790.03;;;9.85;33.81
47873;BME280;73966;47.438;18.912;2024-01-11T10:48:15;100781.34;;;9.66;33.92
47873;BME280;73966;47.438;18.912;2024-01-11T10:50:54;100777.44;;;9.73;33.19
47873;BME280;73966;47.438;18.912;2024-01-11T10:53:34;100777.00;;;9.47;33.59
47873;BME280;73966;47.438;18.912;2024-01-11T10:56:06;100777.44;;;9.90;32.84
47873;BME280;73966;47.438;18.912;2024-01-11T10:58:35;100786.16;;;9.40;33.58
47873;BME280;73966;47.438;18.912;2024-01-11T11:01:06;100775.87;;;9.69;33.20
47873;BME280;73966;47.438;18.912;2024-01-11T11:03:37;100771.84;;;9.79;32.92
47873;BME280;73966;47.438;18.912;2024-01-11T11:06:08;100761.81;;;9.51;32.97
47873;BME280;73966;47.438;18.912;2024-01-11T11:08:39;100759.44;;;9.10;33.76
47873;BME280;73966;47.438;18.912;2024-01-11T11:11:09;100748.72;;;9.13;33.81
47873;BME280;73966;47.438;18.912;2024-01-11T11:13:48;100742.13;;;8.49;34.41
47873;BME280;73966;47.438;18.912;2024-01-11T11:16:19;100740.97;;;8.36;34.55
47873;BME280;73966;47.438;18.912;2024-01-11T11:18:52;100738.19;;;8.77;34.44
47873;BME280;73966;47.438;18.912;2024-01-11T11:21:23;100736.19;;;8.63;33.82
47873;BME280;73966;47.438;18.912;2024-01-11T11:23:55;100726.22;;;8.32;33.82
47873;BME280;73966;47.438;18.912;2024-01-11T11:26:26;100729.78;;;8.86;33.72
47873;BME280;73966;47.438;18.912;2024-01-11T11:28:55;100729.53;;;8.73;34.20
47873;BME280;73966;47.438;18.912;2024-01-11T11:31:35;100727.25;;;8.84;34.00
47873;BME280;73966;47.438;18.912;2024-01-11T11:34:05;100730.12;;;8.80;33.46
47873;BME280;73966;47.438;18.912;2024-01-11T11:36:34;100719.66;;;9.13;33.31
47873;BME280;73966;47.438;18.912;2024-01-11T11:39:09;100712.81;;;8.92;33.32
47873;BME280;73966;47.438;18.912;2024-01-11T11:41:40;100704.63;;;8.03;34.36
47873;BME280;73966;47.438;18.912;2024-01-11T11:44:12;100707.28;;;8.22;34.46
47873;BME280;73966;47.438;18.912;2024-01-11T11:46:43;100698.84;;;7.95;34.94
47873;BME280;73966;47.438;18.912;2024-01-11T11:49:14;100695.22;;;8.54;34.09
47873;BME280;73966;47.438;18.912;2024-01-11T11:51:47;100691.72;;;8.35;33.95
47873;BME280;73966;47.438;18.912;2024-01-11T11:54:17;100686.44;;;8.54;33.72
47873;BME280;73966;47.438;18.912;2024-01-11T11:56:50;100700.97;;;8.45;33.96
47873;BME280;73966;47.438;18.912;2024-01-11T11:59:20;100686.50;;;8.71;34.22
47873;BME280;73966;47.438;18.912;2024-01-11T12:01:51;100689.62;;;8.97;33.60
47873;BME280;73966;47.438;18.912;2024-01-11T12:04:21;100683.31;;;8.82;33.61
47873;BME280;73966;47.438;18.912;2024-01-11T12:06:50;100682.13;;;7.96;34.97
47873;BME280;73966;47.438;18.912;2024-01-11T12:09:20;100678.31;;;8.02;34.74
47873;BME280;73966;47.438;18.912;2024-01-11T12:11:52;100669.31;;;7.29;36.61
47873;BME280;73966;47.438;18.912;2024-01-11T12:14:35;100669.81;;;7.37;36.37
47873;BME280;73966;47.438;18.912;2024-01-11T12:17:07;100663.09;;;7.30;36.61
47873;BME280;73966;47.438;18.912;2024-01-11T12:19:36;100654.19;;;7.12;36.94
47873;BME280;73966;47.438;18.912;2024-01-11T12:22:09;100646.22;;;7.34;36.56
47873;BME280;73966;47.438;18.912;2024-01-11T12:24:38;100648.72;;;7.17;37.10
47873;BME280;73966;47.438;18.912;2024-01-11T12:27:07;100660.31;;;7.12;36.81
47873;BME280;73966;47.438;18.912;2024-01-11T12:29:38;100648.50;;;6.80;37.36
47873;BME280;73966;47.438;18.912;2024-01-11T12:32:23;100647.13;;;6.92;37.09
47873;BME280;73966;47.438;18.912;2024-01-11T12:34:53;100647.97;;;6.72;37.35
47873;BME280;73966;47.438;18.912;2024-01-11T12:37:22;100634.66;;;6.97;37.01
47873;BME280;73966;47.438;18.912;2024-01-11T12:39:57;100631.72;;;7.24;36.68
47873;BME280;73966;47.438;18.912;2024-01-11T12:42:27;100639.00;;;6.98;36.69
47873;BME280;73966;47.438;18.912;2024-01-11T12:44:56;100640.03;;;6.94;37.46
47873;BME280;73966;47.438;18.912;2024-01-11T12:47:28;100637.72;;;6.86;37.87
47873;BME280;73966;47.438;18.912;2024-01-11T12:49:57;100634.09;;;6.25;38.87
47873;BME280;73966;47.438;18.912;2024-01-11T12:52:29;100650.66;;;7.73;44.79
47873;BME280;73966;47.438;18.912;2024-01-11T12:54:58;100638.88;;;7.99;41.71
47873;BME280;73966;47.438;18.912;2024-01-11T12:57:27;100633.94;;;8.48;39.17
47873;BME280;73966;47.438;18.912;2024-01-11T13:00:09;100628.38;;;8.71;38.22